sensor_id;sensor_type;location;lat;lon;timestamp;P1;durP1;ratioP1;P2;durP2;ratioP2
64857;SDS011;51335;51.148;6.950;2022-08-20T00:00:14;5.55;;;3.50;;
64857;SDS011;51335;51.148;6.950;2022-08-20T00:00:51;6.25;;;2.92;;
64857;SDS011;51335;51.148;6.950;2022-08-20T00:01:23;5.75;;;3.17;;
64857;SDS011;51335;51.148;6.950;2022-08-20T00:01:54;5.78;;;3.25;;
64857;SDS011;51335;51.148;6.950;2022-08-20T00:02:24;4.47;;;3.28;;
64857;SDS011;51335;51.148;6.950;2022-08-20T00:02:56;5.18;;;3.20;;
64857;SDS011;51335;51.148;6.950;2022-08-20T00:03:33;4.60;;;2.97;;
64857;SDS011;51335;51.148;6.950;2022-08-20T00:04:05;7.15;;;3.42;;
64857;SDS011;51335;51.148;6.950;2022-08-20T00:04:36;5.15;;;3.40;;
64857;SDS011;51335;51.148;6.950;2022-08-20T00:05:06;4.35;;;3.20;;
64857;SDS011;51335;51.148;6.950;2022-08-20T00:05:38;5.93;;;3.20;;
64857;SDS011;51335;51.148;6.950;2022-08-20T00:06:13;4.72;;;3.20;;
64857;SDS011;51335;51.148;6.950;2022-08-20T00:06:48;5.47;;;3.25;;
64857;SDS011;51335;51.148;6.950;2022-08-20T00:07:19;5.07;;;3.17;;
64857;SDS011;51335;51.148;6.950;2022-08-20T00:07:49;7.85;;;3.00;;
64857;SDS011;51335;51.148;6.950;2022-08-20T00:08:20;6.60;;;3.05;;
64857;SDS011;51335;51.148;6.950;2022-08-20T00:08:51;10.23;;;3.03;;
64857;SDS011;51335;51.148;6.950;2022-08-20T00:09:21;3.28;;;2.83;;
64857;SDS011;51335;51.148;6.950;2022-08-20T00:09:51;7.07;;;3.50;;
64857;SDS011;51335;51.148;6.950;2022-08-20T00:10:22;5.13;;;3.20;;
64857;SDS011;51335;51.148;6.950;2022-08-20T00:10:52;6.38;;;3.40;;
64857;SDS011;51335;51.148;6.950;2022-08-20T00:11:24;5.45;;;3.67;;
64857;SDS011;51335;51.148;6.950;2022-08-20T00:11:55;5.35;;;3.20;;
64857;SDS011;51335;51.148;6.950;2022-08-20T00:12:26;5.82;;;2.90;;
64857;SDS011;51335;51.148;6.950;2022-08-20T00:12:57;5.63;;;3.10;;
64857;SDS011;51335;51.148;6.950;2022-08-20T00:13:30;7.55;;;3.22;;
64857;SDS011;51335;51.148;6.950;2022-08-20T00:14:08;4.90;;;2.80;;
64857;SDS011;51335;51.148;6.950;2022-08-20T00:14:39;7.25;;;3.05;;
64857;SDS011;51335;51.148;6.950;2022-08-20T00:15:10;4.00;;;3.17;;
64857;SDS011;51335;51.148;6.950;2022-08-20T00:15:41;4.35;;;2.90;;
64857;SDS011;51335;51.148;6.950;2022-08-20T00:16:12;4.88;;;3.20;;
64857;SDS011;51335;51.148;6.950;2022-08-20T00:16:43;5.70;;;3.25;;
64857;SDS011;51335;51.148;6.950;2022-08-20T00:17:13;5.15;;;3.13;;
64857;SDS011;51335;51.148;6.950;2022-08-20T00:17:44;5.70;;;3.47;;
64857;SDS011;51335;51.148;6.950;2022-08-20T00:18:14;6.18;;;3.40;;
64857;SDS011;51335;51.148;6.950;2022-08-20T00:18:44;5.57;;;3.15;;
64857;SDS011;51335;51.148;6.950;2022-08-20T00:19:15;4.97;;;3.08;;
64857;SDS011;51335;51.148;6.950;2022-08-20T00:19:45;6.80;;;3.65;;
64857;SDS011;51335;51.148;6.950;2022-08-20T00:20:16;6.85;;;3.60;;
64857;SDS011;51335;51.148;6.950;2022-08-20T00:20:49;6.07;;;3.70;;
64857;SDS011;51335;51.148;6.950;2022-08-20T00:21:22;5.50;;;3.63;;
64857;SDS011;51335;51.148;6.950;2022-08-20T00:21:52;5.47;;;4.20;;
64857;SDS011;51335;51.148;6.950;2022-08-20T00:22:22;7.15;;;4.47;;
64857;SDS011;51335;51.148;6.950;2022-08-20T00:22:53;7.70;;;4.10;;
64857;SDS011;51335;51.148;6.950;2022-08-20T00:23:23;7.90;;;4.22;;
64857;SDS011;51335;51.148;6.950;2022-08-20T00:23:54;5.25;;;3.97;;
64857;SDS011;51335;51.148;6.950;2022-08-20T00:24:26;6.60;;;4.30;;
64857;SDS011;51335;51.148;6.950;2022-08-20T00:24:56;5.60;;;4.60;;
64857;SDS011;51335;51.148;6.950;2022-08-20T00:25:26;7.18;;;4.65;;
64857;SDS011;51335;51.148;6.950;2022-08-20T00:25:57;6.03;;;4.70;;
64857;SDS011;51335;51.148;6.950;2022-08-20T00:26:28;8.05;;;5.50;;
64857;SDS011;51335;51.148;6.950;2022-08-20T00:26:58;9.30;;;5.57;;
64857;SDS011;51335;51.148;6.950;2022-08-20T00:27:28;6.88;;;5.10;;
64857;SDS011;51335;51.148;6.950;2022-08-20T00:27:59;6.95;;;5.15;;
64857;SDS011;51335;51.148;6.950;2022-08-20T00:28:30;6.50;;;4.97;;
64857;SDS011;51335;51.148;6.950;2022-08-20T00:29:00;7.30;;;5.28;;
64857;SDS011;51335;51.148;6.950;2022-08-20T00:29:30;6.13;;;4.82;;
64857;SDS011;51335;51.148;6.950;2022-08-20T00:30:01;9.35;;;5.50;;
64857;SDS011;51335;51.148;6.950;2022-08-20T00:30:34;8.20;;;5.85;;
64857;SDS011;51335;51.148;6.950;2022-08-20T00:31:06;11.88;;;6.00;;
64857;SDS011;51335;51.148;6.950;2022-08-20T00:31:38;7.78;;;5.35;;
64857;SDS011;51335;51.148;6.950;2022-08-20T00:32:08;11.32;;;5.88;;
64857;SDS011;51335;51.148;6.950;2022-08-20T00:32:43;8.70;;;5.32;;
64857;SDS011;51335;51.148;6.950;2022-08-20T00:33:19;8.48;;;5.50;;
64857;SDS011;51335;51.148;6.950;2022-08-20T00:33:51;9.30;;;5.00;;
64857;SDS011;51335;51.148;6.950;2022-08-20T00:34:21;8.85;;;5.88;;
64857;SDS011;51335;51.148;6.950;2022-08-20T00:34:52;8.43;;;4.78;;
64857;SDS011;51335;51.148;6.950;2022-08-20T00:35:27;6.55;;;4.93;;
64857;SDS011;51335;51.148;6.950;2022-08-20T00:35:59;9.63;;;5.30;;
64857;SDS011;51335;51.148;6.950;2022-08-20T00:36:29;8.18;;;5.32;;
64857;SDS011;51335;51.148;6.950;2022-08-20T00:36:59;9.02;;;5.55;;
64857;SDS011;51335;51.148;6.950;2022-08-20T00:37:30;10.43;;;5.68;;
64857;SDS011;51335;51.148;6.950;2022-08-20T00:38:00;7.72;;;5.57;;
64857;SDS011;51335;51.148;6.950;2022-08-20T00:38:31;8.90;;;6.10;;
64857;SDS011;51335;51.148;6.950;2022-08-20T00:39:03;8.80;;;5.85;;
64857;SDS011;51335;51.148;6.950;2022-08-20T00:39:33;11.38;;;6.05;;
64857;SDS011;51335;51.148;6.950;2022-08-20T00:40:05;9.00;;;6.07;;
64857;SDS011;51335;51.148;6.950;2022-08-20T00:40:38;11.93;;;5.50;;
64857;SDS011;51335;51.148;6.950;2022-08-20T00:41:22;9.75;;;5.90;;
64857;SDS011;51335;51.148;6.950;2022-08-20T00:41:55;12.52;;;6.10;;
64857;SDS011;51335;51.148;6.950;2022-08-20T00:42:25;9.20;;;6.25;;
64857;SDS011;51335;51.148;6.950;2022-08-20T00:42:56;9.27;;;5.90;;
64857;SDS011;51335;51.148;6.950;2022-08-20T00:43:35;8.93;;;6.30;;
64857;SDS011;51335;51.148;6.950;2022-08-20T00:44:45;8.90;;;6.22;;
64857;SDS011;51335;51.148;6.950;2022-08-20T00:45:16;9.00;;;5.90;;
64857;SDS011;51335;51.148;6.950;2022-08-20T00:45:48;7.70;;;5.72;;
64857;SDS011;51335;51.148;6.950;2022-08-20T00:46:21;9.63;;;6.00;;
64857;SDS011;51335;51.148;6.950;2022-08-20T00:46:53;10.57;;;6.38;;
64857;SDS011;51335;51.148;6.950;2022-08-20T00:47:24;7.53;;;5.80;;
64857;SDS011;51335;51.148;6.950;2022-08-20T00:47:54;9.93;;;6.38;;
64857;SDS011;51335;51.148;6.950;2022-08-20T00:48:26;10.63;;;6.13;;
64857;SDS011;51335;51.148;6.950;2022-08-20T00:48:59;8.77;;;6.35;;
64857;SDS011;51335;51.148;6.950;2022-08-20T00:49:30;8.80;;;6.32;;
64857;SDS011;51335;51.148;6.950;2022-08-20T00:50:02;9.43;;;6.22;;
64857;SDS011;51335;51.148;6.950;2022-08-20T00:50:34;11.07;;;6.53;;
64857;SDS011;51335;51.148;6.950;2022-08-20T00:51:08;11.13;;;6.80;;
64857;SDS011;51335;51.148;6.950;2022-08-20T00:51:43;11.70;;;6.90;;
64857;SDS011;51335;51.148;6.950;2022-08-20T00:52:15;10.43;;;6.70;;
64857;SDS011;51335;51.148;6.950;2022-08-20T00:52:50;10.60;;;6.75;;
64857;SDS011;51335;51.148;6.950;2022-08-20T00:53:21;11.27;;;7.13;;
64857;SDS011;51335;51.148;6.950;2022-08-20T00:53:55;10.23;;;6.90;;
64857;SDS011;51335;51.148;6.950;2022-08-20T00:54:34;10.63;;;7.28;;
64857;SDS011;51335;51.148;6.950;2022-08-20T00:55:18;10.32;;;7.30;;
64857;SDS011;51335;51.148;6.950;2022-08-20T00:55:51;13.50;;;7.10;;
64857;SDS011;51335;51.148;6.950;2022-08-20T00:56:22;11.50;;;7.85;;
64857;SDS011;51335;51.148;6.950;2022-08-20T00:56:58;11.90;;;7.43;;
64857;SDS011;51335;51.148;6.950;2022-08-20T00:57:39;14.65;;;7.75;;
64857;SDS011;51335;51.148;6.950;2022-08-20T00:58:11;12.02;;;7.35;;
64857;SDS011;51335;51.148;6.950;2022-08-20T00:58:42;12.57;;;7.45;;
64857;SDS011;51335;51.148;6.950;2022-08-20T00:59:15;12.00;;;7.43;;
64857;SDS011;51335;51.148;6.950;2022-08-20T00:59:57;13.57;;;7.50;;
64857;SDS011;51335;51.148;6.950;2022-08-20T01:00:30;13.23;;;7.45;;
64857;SDS011;51335;51.148;6.950;2022-08-20T01:01:03;13.02;;;8.23;;
64857;SDS011;51335;51.148;6.950;2022-08-20T01:01:34;12.60;;;7.80;;
64857;SDS011;51335;51.148;6.950;2022-08-20T01:02:06;11.60;;;7.93;;
64857;SDS011;51335;51.148;6.950;2022-08-20T01:02:43;11.98;;;7.95;;
64857;SDS011;51335;51.148;6.950;2022-08-20T01:03:15;13.48;;;8.38;;
64857;SDS011;51335;51.148;6.950;2022-08-20T01:03:46;14.43;;;8.63;;
64857;SDS011;51335;51.148;6.950;2022-08-20T01:04:16;15.00;;;8.57;;
64857;SDS011;51335;51.148;6.950;2022-08-20T01:04:47;12.73;;;8.38;;
64857;SDS011;51335;51.148;6.950;2022-08-20T01:05:18;13.60;;;8.18;;
64857;SDS011;51335;51.148;6.950;2022-08-20T01:05:49;14.85;;;8.95;;
64857;SDS011;51335;51.148;6.950;2022-08-20T01:06:20;13.90;;;8.32;;
64857;SDS011;51335;51.148;6.950;2022-08-20T01:06:51;13.85;;;8.50;;
64857;SDS011;51335;51.148;6.950;2022-08-20T01:07:22;15.77;;;8.38;;
64857;SDS011;51335;51.148;6.950;2022-08-20T01:07:54;12.30;;;7.97;;
64857;SDS011;51335;51.148;6.950;2022-08-20T01:08:25;12.77;;;8.52;;
64857;SDS011;51335;51.148;6.950;2022-08-20T01:08:56;12.43;;;7.90;;
64857;SDS011;51335;51.148;6.950;2022-08-20T01:09:26;13.02;;;8.40;;
64857;SDS011;51335;51.148;6.950;2022-08-20T01:09:57;11.52;;;7.90;;
64857;SDS011;51335;51.148;6.950;2022-08-20T01:10:32;11.38;;;8.00;;
64857;SDS011;51335;51.148;6.950;2022-08-20T01:11:04;14.70;;;8.00;;
64857;SDS011;51335;51.148;6.950;2022-08-20T01:11:35;12.98;;;8.63;;
64857;SDS011;51335;51.148;6.950;2022-08-20T01:12:05;12.85;;;9.02;;
64857;SDS011;51335;51.148;6.950;2022-08-20T01:12:37;12.95;;;8.25;;
64857;SDS011;51335;51.148;6.950;2022-08-20T01:13:13;14.27;;;8.40;;
64857;SDS011;51335;51.148;6.950;2022-08-20T01:13:47;15.10;;;8.27;;
64857;SDS011;51335;51.148;6.950;2022-08-20T01:14:17;12.13;;;8.25;;
64857;SDS011;51335;51.148;6.950;2022-08-20T01:14:49;14.02;;;8.02;;
64857;SDS011;51335;51.148;6.950;2022-08-20T01:15:21;11.02;;;8.10;;
64857;SDS011;51335;51.148;6.950;2022-08-20T01:15:53;11.82;;;8.00;;
64857;SDS011;51335;51.148;6.950;2022-08-20T01:16:27;12.23;;;7.70;;
64857;SDS011;51335;51.148;6.950;2022-08-20T01:17:02;10.57;;;7.90;;
64857;SDS011;51335;51.148;6.950;2022-08-20T01:17:35;12.18;;;7.93;;
64857;SDS011;51335;51.148;6.950;2022-08-20T01:18:17;12.02;;;8.00;;
64857;SDS011;51335;51.148;6.950;2022-08-20T01:18:49;12.75;;;7.88;;
64857;SDS011;51335;51.148;6.950;2022-08-20T01:19:20;13.85;;;7.88;;
64857;SDS011;51335;51.148;6.950;2022-08-20T01:20:03;11.85;;;7.53;;
64857;SDS011;51335;51.148;6.950;2022-08-20T01:20:39;12.73;;;7.80;;
64857;SDS011;51335;51.148;6.950;2022-08-20T01:21:13;12.80;;;7.63;;
64857;SDS011;51335;51.148;6.950;2022-08-20T01:21:45;11.27;;;6.57;;
64857;SDS011;51335;51.148;6.950;2022-08-20T01:22:18;11.38;;;7.82;;
64857;SDS011;51335;51.148;6.950;2022-08-20T01:24:41;8.70;;;5.30;;
64857;SDS011;51335;51.148;6.950;2022-08-20T01:25:15;8.35;;;5.85;;
64857;SDS011;51335;51.148;6.950;2022-08-20T01:26:43;8.02;;;5.60;;
64857;SDS011;51335;51.148;6.950;2022-08-20T01:27:14;8.93;;;5.05;;
64857;SDS011;51335;51.148;6.950;2022-08-20T01:27:45;9.57;;;5.70;;
64857;SDS011;51335;51.148;6.950;2022-08-20T01:28:17;9.32;;;5.68;;
64857;SDS011;51335;51.148;6.950;2022-08-20T01:28:54;7.55;;;4.88;;
64857;SDS011;51335;51.148;6.950;2022-08-20T01:29:28;8.48;;;4.93;;
64857;SDS011;51335;51.148;6.950;2022-08-20T01:30:04;9.77;;;4.72;;
64857;SDS011;51335;51.148;6.950;2022-08-20T01:30:36;8.15;;;5.05;;
64857;SDS011;51335;51.148;6.950;2022-08-20T01:31:07;9.63;;;5.13;;
64857;SDS011;51335;51.148;6.950;2022-08-20T01:31:41;9.18;;;5.43;;
64857;SDS011;51335;51.148;6.950;2022-08-20T01:32:12;8.25;;;5.18;;
64857;SDS011;51335;51.148;6.950;2022-08-20T01:32:42;9.98;;;5.55;;
64857;SDS011;51335;51.148;6.950;2022-08-20T01:33:12;8.73;;;5.07;;
64857;SDS011;51335;51.148;6.950;2022-08-20T01:33:43;8.30;;;5.20;;
64857;SDS011;51335;51.148;6.950;2022-08-20T01:34:15;7.45;;;4.82;;
64857;SDS011;51335;51.148;6.950;2022-08-20T01:34:47;7.53;;;5.43;;
64857;SDS011;51335;51.148;6.950;2022-08-20T01:35:20;7.15;;;5.20;;
64857;SDS011;51335;51.148;6.950;2022-08-20T01:35:52;7.95;;;5.00;;
64857;SDS011;51335;51.148;6.950;2022-08-20T01:36:24;10.95;;;5.60;;
64857;SDS011;51335;51.148;6.950;2022-08-20T01:37:03;11.82;;;5.53;;
64857;SDS011;51335;51.148;6.950;2022-08-20T01:37:33;9.73;;;5.30;;
64857;SDS011;51335;51.148;6.950;2022-08-20T01:38:03;6.95;;;4.95;;
64857;SDS011;51335;51.148;6.950;2022-08-20T01:38:34;8.65;;;5.20;;
64857;SDS011;51335;51.148;6.950;2022-08-20T01:39:07;8.30;;;5.50;;
64857;SDS011;51335;51.148;6.950;2022-08-20T01:39:40;9.43;;;5.50;;
64857;SDS011;51335;51.148;6.950;2022-08-20T01:40:10;8.02;;;5.30;;
64857;SDS011;51335;51.148;6.950;2022-08-20T01:42:31;6.95;;;5.35;;
64857;SDS011;51335;51.148;6.950;2022-08-20T01:43:10;7.80;;;5.15;;
64857;SDS011;51335;51.148;6.950;2022-08-20T01:43:40;9.85;;;5.40;;
64857;SDS011;51335;51.148;6.950;2022-08-20T01:44:11;10.95;;;5.45;;
64857;SDS011;51335;51.148;6.950;2022-08-20T01:44:42;8.40;;;5.43;;
64857;SDS011;51335;51.148;6.950;2022-08-20T01:45:14;8.25;;;5.32;;
64857;SDS011;51335;51.148;6.950;2022-08-20T01:45:44;8.45;;;5.35;;
64857;SDS011;51335;51.148;6.950;2022-08-20T01:46:15;9.52;;;5.20;;
64857;SDS011;51335;51.148;6.950;2022-08-20T01:46:47;7.57;;;5.10;;
64857;SDS011;51335;51.148;6.950;2022-08-20T01:47:24;8.20;;;5.20;;
64857;SDS011;51335;51.148;6.950;2022-08-20T01:47:57;10.40;;;5.10;;
64857;SDS011;51335;51.148;6.950;2022-08-20T01:48:28;7.20;;;4.78;;
64857;SDS011;51335;51.148;6.950;2022-08-20T01:48:59;11.20;;;5.72;;
64857;SDS011;51335;51.148;6.950;2022-08-20T01:50:23;6.72;;;4.82;;
64857;SDS011;51335;51.148;6.950;2022-08-20T01:50:58;9.77;;;5.32;;
64857;SDS011;51335;51.148;6.950;2022-08-20T01:51:34;9.15;;;5.57;;
64857;SDS011;51335;51.148;6.950;2022-08-20T01:52:05;10.95;;;5.57;;
64857;SDS011;51335;51.148;6.950;2022-08-20T01:53:27;8.77;;;5.30;;
64857;SDS011;51335;51.148;6.950;2022-08-20T01:54:00;8.80;;;5.88;;
64857;SDS011;51335;51.148;6.950;2022-08-20T01:54:30;9.18;;;5.00;;
64857;SDS011;51335;51.148;6.950;2022-08-20T01:55:02;8.70;;;5.90;;
64857;SDS011;51335;51.148;6.950;2022-08-20T01:55:34;9.18;;;6.03;;
64857;SDS011;51335;51.148;6.950;2022-08-20T01:56:07;10.13;;;6.60;;
64857;SDS011;51335;51.148;6.950;2022-08-20T01:57:39;9.05;;;6.40;;
64857;SDS011;51335;51.148;6.950;2022-08-20T01:58:10;10.95;;;6.43;;
64857;SDS011;51335;51.148;6.950;2022-08-20T01:58:42;9.15;;;6.15;;
64857;SDS011;51335;51.148;6.950;2022-08-20T01:59:15;9.73;;;6.00;;
64857;SDS011;51335;51.148;6.950;2022-08-20T01:59:46;10.20;;;6.47;;
64857;SDS011;51335;51.148;6.950;2022-08-20T02:00:19;9.88;;;6.45;;
64857;SDS011;51335;51.148;6.950;2022-08-20T02:00:49;8.95;;;6.25;;
64857;SDS011;51335;51.148;6.950;2022-08-20T02:01:50;12.07;;;7.43;;
64857;SDS011;51335;51.148;6.950;2022-08-20T02:02:21;10.05;;;6.75;;
64857;SDS011;51335;51.148;6.950;2022-08-20T02:02:52;9.77;;;6.70;;
64857;SDS011;51335;51.148;6.950;2022-08-20T02:03:23;11.65;;;7.15;;
64857;SDS011;51335;51.148;6.950;2022-08-20T02:03:53;12.30;;;7.30;;
64857;SDS011;51335;51.148;6.950;2022-08-20T02:04:25;11.95;;;6.90;;
64857;SDS011;51335;51.148;6.950;2022-08-20T02:04:55;13.35;;;7.40;;
64857;SDS011;51335;51.148;6.950;2022-08-20T02:05:25;10.75;;;7.07;;
64857;SDS011;51335;51.148;6.950;2022-08-20T02:05:58;11.23;;;7.35;;
64857;SDS011;51335;51.148;6.950;2022-08-20T02:06:30;10.05;;;7.18;;
64857;SDS011;51335;51.148;6.950;2022-08-20T02:07:03;12.90;;;7.15;;
64857;SDS011;51335;51.148;6.950;2022-08-20T02:07:35;11.27;;;7.07;;
64857;SDS011;51335;51.148;6.950;2022-08-20T02:08:06;11.48;;;7.55;;
64857;SDS011;51335;51.148;6.950;2022-08-20T02:08:36;11.68;;;7.50;;
64857;SDS011;51335;51.148;6.950;2022-08-20T02:09:07;15.00;;;8.15;;
64857;SDS011;51335;51.148;6.950;2022-08-20T02:09:39;12.15;;;7.47;;
64857;SDS011;51335;51.148;6.950;2022-08-20T02:10:10;11.35;;;7.70;;
64857;SDS011;51335;51.148;6.950;2022-08-20T02:10:42;14.25;;;8.15;;
64857;SDS011;51335;51.148;6.950;2022-08-20T02:11:12;11.07;;;7.63;;
64857;SDS011;51335;51.148;6.950;2022-08-20T02:11:43;10.82;;;7.55;;
64857;SDS011;51335;51.148;6.950;2022-08-20T02:12:13;12.77;;;7.75;;
64857;SDS011;51335;51.148;6.950;2022-08-20T02:12:44;12.05;;;8.40;;
64857;SDS011;51335;51.148;6.950;2022-08-20T02:13:15;13.20;;;8.48;;
64857;SDS011;51335;51.148;6.950;2022-08-20T02:13:45;14.73;;;8.20;;
64857;SDS011;51335;51.148;6.950;2022-08-20T02:14:15;10.95;;;7.75;;
64857;SDS011;51335;51.148;6.950;2022-08-20T02:14:47;16.92;;;8.45;;
64857;SDS011;51335;51.148;6.950;2022-08-20T02:15:19;15.45;;;8.68;;
64857;SDS011;51335;51.148;6.950;2022-08-20T02:15:49;15.68;;;8.52;;
64857;SDS011;51335;51.148;6.950;2022-08-20T02:16:24;16.75;;;8.90;;
64857;SDS011;51335;51.148;6.950;2022-08-20T02:16:57;14.02;;;8.73;;
64857;SDS011;51335;51.148;6.950;2022-08-20T02:17:27;14.05;;;8.63;;
64857;SDS011;51335;51.148;6.950;2022-08-20T02:17:58;14.30;;;8.52;;
64857;SDS011;51335;51.148;6.950;2022-08-20T02:18:28;12.27;;;7.90;;
64857;SDS011;51335;51.148;6.950;2022-08-20T02:19:03;13.20;;;8.48;;
64857;SDS011;51335;51.148;6.950;2022-08-20T02:19:43;15.80;;;8.80;;
64857;SDS011;51335;51.148;6.950;2022-08-20T02:20:18;14.85;;;8.43;;
64857;SDS011;51335;51.148;6.950;2022-08-20T02:20:52;16.30;;;8.63;;
64857;SDS011;51335;51.148;6.950;2022-08-20T02:21:22;13.27;;;8.70;;
64857;SDS011;51335;51.148;6.950;2022-08-20T02:21:56;14.57;;;8.48;;
64857;SDS011;51335;51.148;6.950;2022-08-20T02:22:33;15.55;;;8.60;;
64857;SDS011;51335;51.148;6.950;2022-08-20T02:23:06;15.68;;;8.68;;
64857;SDS011;51335;51.148;6.950;2022-08-20T02:23:38;16.27;;;8.70;;
64857;SDS011;51335;51.148;6.950;2022-08-20T02:24:09;13.73;;;8.82;;
64857;SDS011;51335;51.148;6.950;2022-08-20T02:24:39;13.70;;;8.70;;
64857;SDS011;51335;51.148;6.950;2022-08-20T02:25:10;16.70;;;9.55;;
64857;SDS011;51335;51.148;6.950;2022-08-20T02:25:41;15.15;;;9.27;;
64857;SDS011;51335;51.148;6.950;2022-08-20T02:26:15;18.85;;;9.02;;
64857;SDS011;51335;51.148;6.950;2022-08-20T02:26:45;15.35;;;8.40;;
64857;SDS011;51335;51.148;6.950;2022-08-20T02:27:16;14.45;;;8.35;;
64857;SDS011;51335;51.148;6.950;2022-08-20T02:27:47;17.20;;;9.07;;
64857;SDS011;51335;51.148;6.950;2022-08-20T02:28:18;11.75;;;8.18;;
64857;SDS011;51335;51.148;6.950;2022-08-20T02:28:49;14.07;;;8.63;;
64857;SDS011;51335;51.148;6.950;2022-08-20T02:29:21;18.38;;;9.20;;
64857;SDS011;51335;51.148;6.950;2022-08-20T02:29:52;14.18;;;8.40;;
64857;SDS011;51335;51.148;6.950;2022-08-20T02:30:25;13.13;;;8.77;;
64857;SDS011;51335;51.148;6.950;2022-08-20T02:30:58;14.52;;;8.50;;
64857;SDS011;51335;51.148;6.950;2022-08-20T02:31:28;14.70;;;8.13;;
64857;SDS011;51335;51.148;6.950;2022-08-20T02:31:59;14.20;;;8.90;;
64857;SDS011;51335;51.148;6.950;2022-08-20T02:32:29;11.60;;;7.60;;
64857;SDS011;51335;51.148;6.950;2022-08-20T02:33:01;14.52;;;8.50;;
64857;SDS011;51335;51.148;6.950;2022-08-20T02:33:33;14.38;;;8.25;;
64857;SDS011;51335;51.148;6.950;2022-08-20T02:34:04;15.65;;;8.32;;
64857;SDS011;51335;51.148;6.950;2022-08-20T02:34:35;11.65;;;8.30;;
64857;SDS011;51335;51.148;6.950;2022-08-20T02:35:06;11.18;;;8.15;;
64857;SDS011;51335;51.148;6.950;2022-08-20T02:35:38;15.18;;;8.10;;
64857;SDS011;51335;51.148;6.950;2022-08-20T02:36:11;15.30;;;8.80;;
64857;SDS011;51335;51.148;6.950;2022-08-20T02:36:43;12.70;;;8.18;;
64857;SDS011;51335;51.148;6.950;2022-08-20T02:37:13;15.63;;;8.50;;
64857;SDS011;51335;51.148;6.950;2022-08-20T02:37:44;12.48;;;8.50;;
64857;SDS011;51335;51.148;6.950;2022-08-20T02:38:15;13.80;;;8.05;;
64857;SDS011;51335;51.148;6.950;2022-08-20T02:38:45;14.77;;;8.32;;
64857;SDS011;51335;51.148;6.950;2022-08-20T02:39:16;15.45;;;8.90;;
64857;SDS011;51335;51.148;6.950;2022-08-20T02:39:47;15.48;;;8.68;;
64857;SDS011;51335;51.148;6.950;2022-08-20T02:40:18;12.85;;;8.50;;
64857;SDS011;51335;51.148;6.950;2022-08-20T02:40:49;13.52;;;8.80;;
64857;SDS011;51335;51.148;6.950;2022-08-20T02:41:20;13.32;;;8.63;;
64857;SDS011;51335;51.148;6.950;2022-08-20T02:41:50;14.27;;;8.70;;
64857;SDS011;51335;51.148;6.950;2022-08-20T02:42:20;12.93;;;8.38;;
64857;SDS011;51335;51.148;6.950;2022-08-20T02:42:51;15.90;;;8.77;;
64857;SDS011;51335;51.148;6.950;2022-08-20T02:43:21;19.67;;;9.00;;
64857;SDS011;51335;51.148;6.950;2022-08-20T02:43:52;12.38;;;8.48;;
64857;SDS011;51335;51.148;6.950;2022-08-20T02:44:22;14.93;;;8.27;;
64857;SDS011;51335;51.148;6.950;2022-08-20T02:44:52;15.98;;;8.75;;
64857;SDS011;51335;51.148;6.950;2022-08-20T02:45:23;14.65;;;8.70;;
64857;SDS011;51335;51.148;6.950;2022-08-20T02:45:53;12.90;;;8.43;;
64857;SDS011;51335;51.148;6.950;2022-08-20T02:46:23;14.90;;;8.50;;
64857;SDS011;51335;51.148;6.950;2022-08-20T02:46:54;12.90;;;8.43;;
64857;SDS011;51335;51.148;6.950;2022-08-20T02:47:24;11.50;;;8.40;;
64857;SDS011;51335;51.148;6.950;2022-08-20T02:47:55;12.50;;;7.80;;
64857;SDS011;51335;51.148;6.950;2022-08-20T02:48:25;14.85;;;8.68;;
64857;SDS011;51335;51.148;6.950;2022-08-20T02:48:56;13.77;;;8.10;;
64857;SDS011;51335;51.148;6.950;2022-08-20T02:49:27;11.65;;;7.85;;
64857;SDS011;51335;51.148;6.950;2022-08-20T02:49:57;13.68;;;7.60;;
64857;SDS011;51335;51.148;6.950;2022-08-20T02:50:28;13.63;;;7.80;;
64857;SDS011;51335;51.148;6.950;2022-08-20T02:50:59;11.77;;;7.93;;
64857;SDS011;51335;51.148;6.950;2022-08-20T02:51:31;14.40;;;8.50;;
64857;SDS011;51335;51.148;6.950;2022-08-20T02:52:02;14.25;;;8.23;;
64857;SDS011;51335;51.148;6.950;2022-08-20T02:52:32;12.57;;;8.60;;
64857;SDS011;51335;51.148;6.950;2022-08-20T02:53:02;13.57;;;8.30;;
64857;SDS011;51335;51.148;6.950;2022-08-20T02:53:37;13.57;;;7.75;;
64857;SDS011;51335;51.148;6.950;2022-08-20T02:54:09;14.43;;;8.48;;
64857;SDS011;51335;51.148;6.950;2022-08-20T02:54:39;13.70;;;8.63;;
64857;SDS011;51335;51.148;6.950;2022-08-20T02:55:10;14.43;;;8.55;;
64857;SDS011;51335;51.148;6.950;2022-08-20T02:55:42;12.27;;;7.53;;
64857;SDS011;51335;51.148;6.950;2022-08-20T02:56:12;12.15;;;8.23;;
64857;SDS011;51335;51.148;6.950;2022-08-20T02:56:43;15.98;;;8.55;;
64857;SDS011;51335;51.148;6.950;2022-08-20T02:57:14;13.52;;;8.43;;
64857;SDS011;51335;51.148;6.950;2022-08-20T02:57:47;15.48;;;8.77;;
64857;SDS011;51335;51.148;6.950;2022-08-20T02:58:17;12.85;;;7.95;;
64857;SDS011;51335;51.148;6.950;2022-08-20T02:58:48;10.40;;;7.50;;
64857;SDS011;51335;51.148;6.950;2022-08-20T02:59:19;11.82;;;8.10;;
64857;SDS011;51335;51.148;6.950;2022-08-20T02:59:49;13.40;;;8.10;;
64857;SDS011;51335;51.148;6.950;2022-08-20T03:00:20;14.52;;;8.70;;
64857;SDS011;51335;51.148;6.950;2022-08-20T03:00:51;11.20;;;7.60;;
64857;SDS011;51335;51.148;6.950;2022-08-20T03:01:22;11.65;;;7.40;;
64857;SDS011;51335;51.148;6.950;2022-08-20T03:01:52;12.15;;;7.90;;
64857;SDS011;51335;51.148;6.950;2022-08-20T03:02:22;12.32;;;7.97;;
64857;SDS011;51335;51.148;6.950;2022-08-20T03:02:52;13.10;;;7.97;;
64857;SDS011;51335;51.148;6.950;2022-08-20T03:03:23;13.18;;;8.55;;
64857;SDS011;51335;51.148;6.950;2022-08-20T03:03:53;15.48;;;8.43;;
64857;SDS011;51335;51.148;6.950;2022-08-20T03:04:24;12.45;;;8.85;;
64857;SDS011;51335;51.148;6.950;2022-08-20T03:04:54;15.32;;;9.25;;
64857;SDS011;51335;51.148;6.950;2022-08-20T03:05:24;13.35;;;7.93;;
64857;SDS011;51335;51.148;6.950;2022-08-20T03:05:56;12.73;;;8.55;;
64857;SDS011;51335;51.148;6.950;2022-08-20T03:06:28;13.55;;;8.07;;
64857;SDS011;51335;51.148;6.950;2022-08-20T03:06:58;15.38;;;8.75;;
64857;SDS011;51335;51.148;6.950;2022-08-20T03:07:28;13.70;;;8.85;;
64857;SDS011;51335;51.148;6.950;2022-08-20T03:07:59;12.95;;;8.85;;
64857;SDS011;51335;51.148;6.950;2022-08-20T03:08:29;13.95;;;8.07;;
64857;SDS011;51335;51.148;6.950;2022-08-20T03:08:59;15.50;;;8.48;;
64857;SDS011;51335;51.148;6.950;2022-08-20T03:09:30;13.38;;;8.60;;
64857;SDS011;51335;51.148;6.950;2022-08-20T03:10:00;14.10;;;8.60;;
64857;SDS011;51335;51.148;6.950;2022-08-20T03:10:31;13.73;;;8.23;;
64857;SDS011;51335;51.148;6.950;2022-08-20T03:11:04;14.85;;;9.23;;
64857;SDS011;51335;51.148;6.950;2022-08-20T03:11:35;14.27;;;8.43;;
64857;SDS011;51335;51.148;6.950;2022-08-20T03:12:05;13.30;;;8.13;;
64857;SDS011;51335;51.148;6.950;2022-08-20T03:12:36;14.50;;;9.02;;
64857;SDS011;51335;51.148;6.950;2022-08-20T03:13:06;13.57;;;8.82;;
64857;SDS011;51335;51.148;6.950;2022-08-20T03:13:37;14.77;;;9.10;;
64857;SDS011;51335;51.148;6.950;2022-08-20T03:14:07;15.20;;;8.57;;
64857;SDS011;51335;51.148;6.950;2022-08-20T03:14:37;13.85;;;8.80;;
64857;SDS011;51335;51.148;6.950;2022-08-20T03:15:08;16.17;;;8.98;;
64857;SDS011;51335;51.148;6.950;2022-08-20T03:15:40;18.48;;;9.30;;
64857;SDS011;51335;51.148;6.950;2022-08-20T03:16:13;15.23;;;9.10;;
64857;SDS011;51335;51.148;6.950;2022-08-20T03:16:43;16.70;;;9.50;;
64857;SDS011;51335;51.148;6.950;2022-08-20T03:17:14;16.38;;;9.48;;
64857;SDS011;51335;51.148;6.950;2022-08-20T03:17:44;17.08;;;9.25;;
64857;SDS011;51335;51.148;6.950;2022-08-20T03:18:16;15.77;;;8.93;;